Historyczne dane pomiarowe

Dodano dane terminowe – wersja testowa.

Dane z okresu 1951-2019

Wersja bazy: 1.34 [2019-03-16, lista zmian], aktualizacja planowana na 2019-04-15

Dane meteo z obszaru Polski uzyskane na podstawie danych udostępnionych przez Instytut Meteorologii i Gospodarki Wodnej – Państwowy Instytut Badawczy.

 

Wybierz Datę:    

       

TemperaturaWilgotnośćWiatrCiśnienieOpadyŚniegCzas trwania zjawisk
 Stacja t tx tn tng RH VA  wxwx mslp ppp RRR   cm mm wxwxwxwxwxwxwx
1961-08-14 13.9 19.4 9.3- 80.3- 6.7 1.0---- 0.3------------
1961-08-13 14.2 17.8 12.3- 77.8- 5.3 3.3---- 0.0------------
1961-08-12 16.3 20.0 13.0- 79.5- 6.3 2.0---- 0.0------------
1961-08-11 17.3 21.9 15.3- 92.3- 5.3 1.3---- 1.2------------
1961-08-10 19.4 24.8 12.6- 87.8- 6.0 2.7---- 7.6------------
1961-08-09 19.4 24.3 14.7- 72.5- 5.3 1.7---- 0.0------------
1961-08-08 19.0 23.9 6.7- 74.3- 4.0 2.3---- 0.0------------
1961-08-07 17.5 21.7 16.1- 73.8- 5.0 3.3---- 8.5------------
1961-08-06 22.0 28.7 17.8- 71.5- 2.3 3.3---- 0.6------------
1961-08-05 19.5 25.3 15.2- 79.5- 5.3 2.7---- 0.0------------
1961-08-04 15.6 17.4 9.4- 78.3- 7.3 5.0---- 0.8------------
1961-08-03 14.3 19.4 12.3- 81.8- 3.3 3.0---- 3.3------------
1961-08-02 15.9 20.6 9.2- 86.3- 4.0 1.3---- 0.0------------
1961-08-01 16.3 21.3 11.6- 70.5- 2.3 5.0---- 0.0------------
1961-07-31 14.7 17.8 12.7- 75.0- 7.3 4.0---- 0.0------------
1961-07-30 14.6 17.1 10.0- 80.5- 6.0 3.0---- 0.4------------
1961-07-29 13.7 17.5 10.6- 79.3- 6.0 3.3---- 0.0------------
1961-07-28 14.9 17.3 14.1- 83.3- 7.3 3.0---- 0.3------------
1961-07-27 18.4 22.5 16.5- 67.3- 6.7 4.7---- 4.8------------
1961-07-26 20.3 24.2 14.2- 55.0- 7.0 4.3---- 0.0------------
1961-07-25 15.5 19.4 12.5- 75.3- 7.7 2.3---- 0.0------------
1961-07-24 13.7 16.2 12.2- 78.0- 8.0 3.7---- 0.0------------
1961-07-23 14.6 17.5 13.1- 77.8- 8.0 3.0---- 0.0------------
1961-07-22 14.7 17.0 13.7- 81.3- 7.7 4.3---- 1.4------------
1961-07-21 14.5 18.1 13.8- 93.5- 7.7 5.0---- 8.3------------
1961-07-20 15.7 18.5 12.8- 81.0- 7.3 4.0---- 1.1------------
1961-07-19 16.1 20.5 12.2- 79.0- 6.7 3.0---- 0.0------------
1961-07-18 15.1 19.9 12.2- 81.8- 6.3 4.3---- 4.9------------
1961-07-17 13.2 16.5 8.2- 93.3- 7.3 2.0---- 3.6------------
1961-07-16 15.8 22.9 13.3- 77.3- 3.3 3.0---- 7.4------------
1961-07-15 19.2 24.6 13.9- 55.8- 6.0 2.7---- 0.0------------
1961-07-14 14.8 20.8 11.7- 79.8- 7.3 3.7---- 0.5------------
1961-07-13 17.6 22.6 15.9- 89.0- 7.3 2.7---- 6.5------------
1961-07-12 21.5 27.1 14.3- 67.3- 2.3 1.3---- 0.0------------
1961-07-11 17.5 22.4 11.2- 75.3- 7.0 1.3---- 0.0------------
1961-07-10 14.1 18.2 11.2- 71.8- 7.3 3.7---- 0.0------------
1961-07-09 14.2 18.6 13.6- 86.3- 7.3 4.0---- 1.6------------
1961-07-08 17.8 23.5 12.0- 64.0- 6.7 3.3---- 7.6------------
1961-07-07 13.4 18.4 9.1- 73.5- 4.7 3.3---- 0.0------------
1961-07-06 12.3 17.5 8.3- 83.5- 7.0 4.7---- 3.7------------
1961-07-05 12.0 17.4 10.5- 76.5- 4.3 6.7---- 6.6------------
1961-07-04 15.5 19.6 13.5- 85.0- 6.0 4.0---- 8.3------------
1961-07-03 23.0 32.5 17.4- 64.8- 5.3 1.3---- 1.4------------
1961-07-02 23.3 32.0 12.8- 65.3- 0.0 0.3---- 0.0------------
1961-07-01 21.8 29.2 11.2- 64.5- 0.0 0.3---- 0.0------------
1961-06-30 19.8 26.4 9.0- 68.0- 0.0 1.0---- 0.0------------
1961-06-29 17.2 24.3 11.7- 68.3- 1.0 2.3---- 0.0------------
1961-06-28 15.7 19.5 11.7- 62.3- 5.0 5.7---- 0.0------------
1961-06-27 20.1 24.7 17.5- 74.3- 7.7 3.7---- 2.1------------
1961-06-26 24.4 30.0 13.0- 51.8- 2.3 1.3---- 0.0------------
1961-06-25 22.8 29.5 15.4- 57.5- 1.7 2.7---- 0.0------------
1961-06-24 20.2 26.1 13.8- 61.5- 4.3 3.3---- 0.0------------
1961-06-23 18.6 23.4 15.0- 59.3- 4.0 4.7---- 0.0------------
1961-06-22 17.7 25.1 6.1- 68.3- 1.7 2.0---- 0.0------------
1961-06-21 14.1 20.7 6.7- 75.0- 4.7 1.7---- 0.0------------
1961-06-20 14.3 19.6 9.6- 67.8- 1.3 2.3---- 0.0------------
1961-06-19 16.6 20.7 13.6- 58.0- 2.3 4.7---- 0.0------------
1961-06-18 21.4 27.4 16.0- 70.0- 3.3 5.0---- 0.0------------
1961-06-17 18.8 23.8 9.7- 64.0- 4.3 1.7---- 0.0------------
1961-06-16 13.6 19.7 9.4- 73.8- 1.3 2.3---- 0.0------------
1056.6 ms

 

Źródłem pochodzenia danych jest Instytut Meteorologii i Gospodarki Wodnej – Państwowy Instytut Badawczy. Dane Instytutu Meteorologii i Gospodarki Wodnej – Państwowego Instytutu Badawczego zostały przetworzone.

Dane źródłowe można odnaleźć na stronie https://dane.imgw.pl